createdAt,value
2023-03-29T00:00:45.242Z,0
2023-03-29T00:01:59.639Z,0
2023-03-29T00:03:14.055Z,0
2023-03-29T00:04:28.365Z,0
2023-03-29T00:05:42.652Z,0
2023-03-29T00:06:56.928Z,0
2023-03-29T00:08:11.336Z,0
2023-03-29T00:09:25.674Z,0
2023-03-29T00:10:39.942Z,0
2023-03-29T00:11:54.240Z,0
2023-03-29T00:13:08.636Z,0
2023-03-29T00:14:22.958Z,0
2023-03-29T00:15:37.235Z,0
2023-03-29T00:16:51.518Z,0
2023-03-29T00:18:05.937Z,0
2023-03-29T00:19:20.245Z,0
2023-03-29T00:20:34.523Z,0
2023-03-29T00:21:48.808Z,0
2023-03-29T00:23:03.225Z,0
2023-03-29T00:24:17.539Z,0
2023-03-29T00:25:31.830Z,0
2023-03-29T00:26:46.238Z,0
2023-03-29T00:28:00.643Z,0
2023-03-29T00:29:14.951Z,0
2023-03-29T00:30:29.238Z,0
2023-03-29T00:31:43.512Z,0
2023-03-29T00:32:57.921Z,0
2023-03-29T00:34:12.262Z,0
2023-03-29T00:35:26.534Z,0
2023-03-29T00:36:40.815Z,0
2023-03-29T00:37:55.216Z,0
2023-03-29T00:39:09.539Z,0
2023-03-29T00:40:23.823Z,0
2023-03-29T00:41:38.099Z,0
2023-03-29T00:42:52.515Z,0
2023-03-29T00:44:06.842Z,0
2023-03-29T00:45:21.112Z,0
2023-03-29T00:46:35.532Z,0
2023-03-29T00:47:49.934Z,0
2023-03-29T00:49:04.256Z,0
2023-03-29T00:50:18.532Z,0
2023-03-29T00:51:32.818Z,0
2023-03-29T00:52:47.229Z,0
2023-03-29T00:54:01.552Z,0
2023-03-29T00:55:15.815Z,0
2023-03-29T00:56:30.106Z,0
2023-03-29T00:57:44.503Z,0
2023-03-29T00:58:58.828Z,0
2023-03-29T01:00:13.120Z,0
2023-03-29T01:01:27.394Z,0
2023-03-29T01:02:41.811Z,0
2023-03-29T01:03:56.129Z,0
2023-03-29T01:05:10.415Z,0
2023-03-29T01:06:24.679Z,0
2023-03-29T01:07:39.088Z,0
2023-03-29T01:08:53.418Z,0
2023-03-29T01:10:07.695Z,0
2023-03-29T01:11:21.971Z,0
2023-03-29T01:12:36.386Z,0
2023-03-29T01:13:50.711Z,0
2023-03-29T01:15:04.983Z,0
2023-03-29T01:16:19.388Z,0
2023-03-29T01:17:33.805Z,0
2023-03-29T01:18:48.120Z,0
2023-03-29T01:20:02.402Z,0
2023-03-29T01:21:16.692Z,0
2023-03-29T01:22:31.102Z,0
2023-03-29T01:23:45.410Z,0
2023-03-29T01:24:59.706Z,0
2023-03-29T01:26:13.977Z,0
2023-03-29T01:27:28.385Z,0
2023-03-29T01:28:42.700Z,0
2023-03-29T01:29:56.990Z,0
2023-03-29T01:31:11.270Z,0
2023-03-29T01:32:25.674Z,0
2023-03-29T01:33:39.992Z,0
2023-03-29T01:34:54.281Z,0
2023-03-29T01:36:08.571Z,0
2023-03-29T01:37:22.975Z,0
2023-03-29T01:38:37.302Z,0
2023-03-29T01:39:51.579Z,0
2023-03-29T01:41:05.983Z,0
2023-03-29T01:42:20.388Z,0
2023-03-29T01:43:34.706Z,0
2023-03-29T01:44:48.987Z,0
2023-03-29T01:46:03.263Z,0
2023-03-29T01:47:17.684Z,0
2023-03-29T01:48:32.005Z,0
2023-03-29T01:51:00.570Z,0
2023-03-29T01:52:14.972Z,0
2023-03-29T01:53:29.287Z,0
2023-03-29T01:54:43.580Z,0
2023-03-29T01:55:57.849Z,0
2023-03-29T01:57:12.258Z,0
2023-03-29T01:58:26.578Z,0
2023-03-29T01:59:40.876Z,0
2023-03-29T02:00:55.176Z,0
2023-03-29T02:02:09.555Z,0
2023-03-29T02:03:23.874Z,0
2023-03-29T02:04:38.153Z,0
2023-03-29T02:05:52.441Z,0
2023-03-29T02:07:06.845Z,0
2023-03-29T02:08:21.175Z,0
2023-03-29T02:09:35.445Z,0
2023-03-29T02:10:49.854Z,0
2023-03-29T02:12:04.265Z,0
2023-03-29T02:14:32.863Z,0
2023-03-29T02:15:47.137Z,0
2023-03-29T02:17:01.545Z,0
2023-03-29T02:19:30.163Z,0
2023-03-29T02:20:44.439Z,0
2023-03-29T02:21:58.839Z,0
2023-03-29T02:25:41.737Z,0
2023-03-29T02:26:56.130Z,0
2023-03-29T02:28:10.454Z,0
2023-03-29T02:29:24.740Z,0
2023-03-29T02:30:39.156Z,0
2023-03-29T02:31:53.580Z,0
2023-03-29T02:33:07.904Z,0
2023-03-29T02:34:22.169Z,0
2023-03-29T02:35:36.464Z,0
2023-03-29T02:36:50.869Z,0
2023-03-29T02:38:05.190Z,0
2023-03-29T02:39:19.476Z,0
2023-03-29T02:40:33.875Z,0
2023-03-29T02:41:48.288Z,0
2023-03-29T02:43:02.606Z,0
2023-03-29T02:44:16.888Z,0
2023-03-29T02:45:31.157Z,0
2023-03-29T02:46:45.574Z,0
2023-03-29T02:47:59.899Z,0
2023-03-29T02:49:14.185Z,0
2023-03-29T02:50:28.605Z,0
2023-03-29T02:51:43.007Z,0
2023-03-29T02:52:57.322Z,0
2023-03-29T02:54:11.609Z,0
2023-03-29T02:55:25.901Z,0
2023-03-29T02:56:40.301Z,0
2023-03-29T02:57:54.620Z,0
2023-03-29T02:59:08.901Z,0
2023-03-29T03:00:23.300Z,0
2023-03-29T03:01:37.659Z,0
2023-03-29T03:02:51.950Z,0
2023-03-29T03:04:06.240Z,0
2023-03-29T03:05:20.513Z,0
2023-03-29T03:06:34.928Z,0
2023-03-29T03:07:49.242Z,0
2023-03-29T03:09:03.534Z,0
2023-03-29T03:10:17.815Z,0
2023-03-29T03:11:32.211Z,0
2023-03-29T03:12:46.548Z,0
2023-03-29T03:14:00.829Z,0
2023-03-29T03:15:15.097Z,0
2023-03-29T03:16:29.525Z,0
2023-03-29T03:17:43.840Z,0
2023-03-29T03:18:58.123Z,0
2023-03-29T03:21:26.816Z,0
2023-03-29T03:22:41.139Z,0
2023-03-29T03:23:55.407Z,0
2023-03-29T03:25:09.817Z,0
2023-03-29T03:26:24.218Z,0
2023-03-29T03:27:38.553Z,0
2023-03-29T03:28:52.834Z,0
2023-03-29T03:30:07.104Z,0
2023-03-29T03:31:21.529Z,0
2023-03-29T03:32:35.837Z,0
2023-03-29T03:33:50.132Z,0
2023-03-29T03:36:18.808Z,0
2023-03-29T03:37:33.142Z,0
2023-03-29T03:38:47.422Z,0
2023-03-29T03:40:01.690Z,0
2023-03-29T03:41:16.103Z,0
2023-03-29T03:42:30.421Z,0
2023-03-29T03:43:44.708Z,0
2023-03-29T03:44:59.107Z,0
2023-03-29T03:46:13.520Z,0
2023-03-29T03:47:27.858Z,0
2023-03-29T03:48:42.123Z,0
2023-03-29T03:51:10.820Z,0
2023-03-29T03:52:25.149Z,0
2023-03-29T03:53:39.421Z,0
2023-03-29T03:54:53.696Z,0
2023-03-29T03:56:08.117Z,0
2023-03-29T03:57:22.436Z,0
2023-03-29T03:58:36.724Z,0
2023-03-29T03:59:50.989Z,0
2023-03-29T04:01:05.416Z,0
2023-03-29T04:02:19.733Z,0
2023-03-29T04:03:34.007Z,0
2023-03-29T04:04:48.409Z,0
2023-03-29T04:06:02.831Z,0
2023-03-29T04:07:17.149Z,0
2023-03-29T04:08:31.427Z,0
2023-03-29T04:11:00.126Z,0
2023-03-29T04:12:14.449Z,0
2023-03-29T04:13:28.723Z,0
2023-03-29T04:14:43.004Z,0
2023-03-29T04:15:57.409Z,0
2023-03-29T04:17:11.741Z,0
2023-03-29T04:18:26.010Z,0
2023-03-29T04:19:40.298Z,0
2023-03-29T04:20:54.706Z,0
2023-03-29T04:22:09.037Z,0
2023-03-29T04:23:23.309Z,0
2023-03-29T04:24:37.717Z,0
2023-03-29T04:25:52.115Z,0
2023-03-29T04:27:06.444Z,0
2023-03-29T04:28:20.729Z,0
2023-03-29T04:29:34.998Z,0
2023-03-29T04:30:49.405Z,0
2023-03-29T04:32:03.732Z,0
2023-03-29T04:33:18.009Z,0
2023-03-29T04:34:32.299Z,0
2023-03-29T04:35:46.704Z,0
2023-03-29T04:37:00.941Z,0
2023-03-29T04:38:15.180Z,0
2023-03-29T04:39:29.402Z,0
2023-03-29T04:40:43.682Z,0
2023-03-29T04:41:58.099Z,0
2023-03-29T04:43:12.335Z,0
2023-03-29T04:45:40.785Z,0
2023-03-29T04:46:55.002Z,0
2023-03-29T04:48:09.306Z,0
2023-03-29T04:49:23.553Z,0
2023-03-29T04:50:37.778Z,0
2023-03-29T04:51:52.011Z,0
2023-03-29T04:53:06.238Z,0
2023-03-29T04:54:20.526Z,0
2023-03-29T04:55:34.778Z,0
2023-03-29T04:56:49.008Z,0
2023-03-29T04:58:03.231Z,0
2023-03-29T04:59:17.578Z,0
2023-03-29T05:00:31.866Z,0
2023-03-29T05:01:46.106Z,0
2023-03-29T05:04:14.568Z,0
2023-03-29T05:05:28.794Z,0
2023-03-29T05:06:43.090Z,0
2023-03-29T05:07:57.341Z,0
2023-03-29T05:09:11.559Z,0
2023-03-29T05:10:25.797Z,0
2023-03-29T05:11:40.014Z,5
2023-03-29T05:12:54.320Z,5
2023-03-29T05:14:08.554Z,5
2023-03-29T05:15:22.786Z,5
2023-03-29T05:16:37.124Z,5
2023-03-29T05:17:51.367Z,5
2023-03-29T05:19:05.660Z,5
2023-03-29T05:20:19.900Z,11
2023-03-29T05:21:34.120Z,11
2023-03-29T05:22:48.355Z,11
2023-03-29T05:24:02.582Z,11
2023-03-29T05:25:16.883Z,11
2023-03-29T05:26:31.131Z,16
2023-03-29T05:27:45.351Z,16
2023-03-29T05:28:59.581Z,16
2023-03-29T05:30:13.800Z,22
2023-03-29T05:31:28.100Z,22
2023-03-29T05:32:42.342Z,22
2023-03-29T05:33:56.575Z,28
2023-03-29T05:35:10.794Z,28
2023-03-29T05:36:25.028Z,28
2023-03-29T05:37:39.331Z,28
2023-03-29T05:38:53.000Z,33
2023-03-29T05:40:07.800Z,33
2023-03-29T05:41:22.148Z,33
2023-03-29T05:42:36.359Z,33
2023-03-29T05:43:50.677Z,33
2023-03-29T05:45:04.901Z,28
2023-03-29T05:46:19.146Z,28
2023-03-29T05:47:33.361Z,28
2023-03-29T05:48:47.593Z,28
2023-03-29T05:50:01.897Z,28
2023-03-29T05:51:16.132Z,33
2023-03-29T05:52:30.361Z,33
2023-03-29T05:53:44.591Z,33
2023-03-29T05:54:58.819Z,33
2023-03-29T05:56:13.108Z,33
2023-03-29T05:57:27.359Z,39
2023-03-29T05:58:41.570Z,45
2023-03-29T05:59:55.806Z,50
2023-03-29T06:01:10.030Z,45
2023-03-29T06:02:24.337Z,45
2023-03-29T06:03:38.582Z,50
2023-03-29T06:04:52.802Z,50
2023-03-29T06:07:21.378Z,61
2023-03-29T06:08:35.676Z,67
2023-03-29T06:09:49.914Z,67
2023-03-29T06:11:04.153Z,56
2023-03-29T06:12:18.370Z,56
2023-03-29T06:13:32.601Z,67
2023-03-29T06:14:46.902Z,78
2023-03-29T06:16:01.143Z,78
2023-03-29T06:17:15.367Z,90
2023-03-29T06:18:29.585Z,78
2023-03-29T06:19:43.819Z,90
2023-03-29T06:20:58.129Z,90
2023-03-29T06:23:26.595Z,78
2023-03-29T06:24:40.810Z,84
2023-03-29T06:25:55.164Z,90
2023-03-29T06:27:09.471Z,84
2023-03-29T06:28:23.707Z,90
2023-03-29T06:29:37.923Z,67
2023-03-29T06:32:06.392Z,90
2023-03-29T06:33:20.674Z,106
2023-03-29T06:34:34.932Z,106
2023-03-29T06:35:49.151Z,101
2023-03-29T06:37:03.382Z,90
2023-03-29T06:38:17.596Z,84
2023-03-29T06:39:31.909Z,84
2023-03-29T06:40:46.154Z,73
2023-03-29T06:42:00.381Z,78
2023-03-29T06:43:14.721Z,84
2023-03-29T06:44:28.955Z,78
2023-03-29T06:45:43.254Z,84
2023-03-29T06:46:57.487Z,95
2023-03-29T06:48:11.707Z,95
2023-03-29T06:49:25.943Z,106
2023-03-29T06:50:40.161Z,129
2023-03-29T06:51:54.476Z,123
2023-03-29T06:53:08.699Z,129
2023-03-29T06:54:22.933Z,123
2023-03-29T06:55:37.171Z,118
2023-03-29T06:56:51.389Z,123
2023-03-29T06:58:05.693Z,129
2023-03-29T06:59:19.933Z,140
2023-03-29T07:00:34.288Z,185
2023-03-29T07:01:48.511Z,230
2023-03-29T07:03:02.728Z,264
2023-03-29T07:04:17.025Z,196
2023-03-29T07:05:31.267Z,129
2023-03-29T07:06:45.499Z,118
2023-03-29T07:07:59.718Z,135
2023-03-29T07:09:13.945Z,151
2023-03-29T07:10:28.249Z,168
2023-03-29T07:11:42.494Z,151
2023-03-29T07:12:56.710Z,174
2023-03-29T07:14:10.954Z,213
2023-03-29T07:15:25.165Z,168
2023-03-29T07:17:53.709Z,196
2023-03-29T07:19:07.938Z,180
2023-03-29T07:20:22.297Z,168
2023-03-29T07:21:36.524Z,151
2023-03-29T07:22:50.820Z,146
2023-03-29T07:24:05.050Z,146
2023-03-29T07:25:19.291Z,146
2023-03-29T07:26:33.503Z,151
2023-03-29T07:27:47.732Z,157
2023-03-29T07:29:02.041Z,168
2023-03-29T07:30:16.268Z,191
2023-03-29T07:31:30.497Z,208
2023-03-29T07:32:44.732Z,202
2023-03-29T07:33:58.953Z,185
2023-03-29T07:35:13.260Z,180
2023-03-29T07:36:27.503Z,180
2023-03-29T07:37:41.843Z,163
2023-03-29T07:38:56.073Z,168
2023-03-29T07:40:10.305Z,180
2023-03-29T07:41:24.607Z,174
2023-03-29T07:42:38.833Z,163
2023-03-29T07:43:53.068Z,174
2023-03-29T07:45:07.294Z,180
2023-03-29T07:46:21.519Z,180
2023-03-29T07:47:35.819Z,174
2023-03-29T07:48:50.070Z,191
2023-03-29T07:50:04.298Z,208
2023-03-29T07:51:18.522Z,202
2023-03-29T07:52:32.751Z,191
2023-03-29T07:53:47.034Z,196
2023-03-29T07:55:01.282Z,202
2023-03-29T07:56:15.501Z,196
2023-03-29T07:57:29.733Z,191
2023-03-29T07:58:43.952Z,196
2023-03-29T07:59:58.267Z,202
2023-03-29T08:02:26.722Z,196
2023-03-29T08:03:40.962Z,191
2023-03-29T08:04:55.302Z,180
2023-03-29T08:06:09.603Z,163
2023-03-29T08:07:23.843Z,163
2023-03-29T08:08:38.076Z,168
2023-03-29T08:09:52.290Z,180
2023-03-29T08:11:06.527Z,185
2023-03-29T08:12:20.829Z,196
2023-03-29T08:13:35.067Z,202
2023-03-29T08:14:49.287Z,196
2023-03-29T08:17:17.748Z,219
2023-03-29T08:18:32.054Z,225
2023-03-29T08:19:46.294Z,241
2023-03-29T08:21:00.515Z,258
2023-03-29T08:22:14.733Z,292
2023-03-29T08:23:28.967Z,258
2023-03-29T08:24:43.274Z,258
2023-03-29T08:25:57.504Z,258
2023-03-29T08:27:11.736Z,264
2023-03-29T08:28:25.969Z,281
2023-03-29T08:29:40.315Z,309
2023-03-29T08:30:54.603Z,343
2023-03-29T08:32:08.853Z,376
2023-03-29T08:33:23.083Z,382
2023-03-29T08:34:37.301Z,393
2023-03-29T08:35:51.539Z,393
2023-03-29T08:37:05.820Z,331
2023-03-29T08:38:20.062Z,315
2023-03-29T08:39:34.288Z,320
2023-03-29T08:40:48.517Z,315
2023-03-29T08:42:02.746Z,360
2023-03-29T08:43:17.041Z,354
2023-03-29T08:44:31.292Z,376
2023-03-29T08:45:45.508Z,466
2023-03-29T08:46:59.738Z,523
2023-03-29T08:48:13.959Z,511
2023-03-29T08:49:28.265Z,506
2023-03-29T08:50:42.507Z,534
2023-03-29T08:51:56.741Z,517
2023-03-29T08:53:10.963Z,540
2023-03-29T08:54:25.181Z,506
2023-03-29T08:55:39.481Z,438
2023-03-29T08:56:53.731Z,365
2023-03-29T08:58:07.949Z,354
2023-03-29T08:59:22.193Z,360
2023-03-29T09:00:36.411Z,337
2023-03-29T09:01:50.707Z,331
2023-03-29T09:03:04.944Z,309
2023-03-29T09:04:19.168Z,343
2023-03-29T09:05:33.402Z,410
2023-03-29T09:06:47.634Z,388
2023-03-29T09:08:01.936Z,365
2023-03-29T09:09:16.170Z,360
2023-03-29T09:10:30.408Z,326
2023-03-29T09:11:44.624Z,309
2023-03-29T09:12:58.846Z,331
2023-03-29T09:14:13.156Z,281
2023-03-29T09:15:27.449Z,303
2023-03-29T09:16:40.802Z,292
2023-03-29T09:17:54.099Z,230
2023-03-29T09:19:08.321Z,196
2023-03-29T09:20:22.554Z,241
2023-03-29T09:21:36.794Z,331
2023-03-29T09:22:51.013Z,303
2023-03-29T09:24:05.309Z,225
2023-03-29T09:25:19.547Z,309
2023-03-29T09:26:33.769Z,371
2023-03-29T09:27:48.008Z,275
2023-03-29T09:29:02.224Z,281
2023-03-29T09:30:16.541Z,410
2023-03-29T09:31:30.773Z,388
2023-03-29T09:32:45.009Z,410
2023-03-29T09:33:59.227Z,309
2023-03-29T09:35:13.445Z,337
2023-03-29T09:36:27.758Z,365
2023-03-29T09:37:41.985Z,410
2023-03-29T09:38:56.230Z,438
2023-03-29T09:40:10.440Z,399
2023-03-29T09:41:24.674Z,433
2023-03-29T09:42:38.977Z,399
2023-03-29T09:43:53.214Z,399
2023-03-29T09:45:07.432Z,472
2023-03-29T09:46:21.658Z,523
2023-03-29T09:47:35.903Z,506
2023-03-29T09:48:50.243Z,489
2023-03-29T09:50:04.528Z,461
2023-03-29T09:51:17.860Z,545
2023-03-29T09:52:31.166Z,708
2023-03-29T09:53:45.410Z,708
2023-03-29T09:54:59.621Z,652
2023-03-29T09:56:13.862Z,624
2023-03-29T09:57:28.085Z,562
2023-03-29T09:58:42.375Z,489
2023-03-29T09:59:56.626Z,506
2023-03-29T10:01:10.844Z,613
2023-03-29T10:02:25.084Z,601
2023-03-29T10:03:39.301Z,585
2023-03-29T10:04:53.595Z,556
2023-03-29T10:06:07.847Z,450
2023-03-29T10:07:22.069Z,331
2023-03-29T10:08:36.291Z,292
2023-03-29T10:09:50.525Z,298
2023-03-29T10:11:04.826Z,309
2023-03-29T10:12:19.064Z,354
2023-03-29T10:13:33.295Z,444
2023-03-29T10:14:47.513Z,635
2023-03-29T10:16:01.738Z,720
2023-03-29T10:17:16.033Z,956
2023-03-29T10:18:30.291Z,911
2023-03-29T10:19:44.501Z,860
2023-03-29T10:20:58.739Z,821
2023-03-29T10:22:12.957Z,658
2023-03-29T10:23:27.323Z,534
2023-03-29T10:24:41.594Z,528
2023-03-29T10:25:54.896Z,500
2023-03-29T10:27:09.117Z,511
2023-03-29T10:28:23.429Z,466
2023-03-29T10:29:37.667Z,421
2023-03-29T10:30:51.887Z,376
2023-03-29T10:32:06.116Z,326
2023-03-29T10:33:20.337Z,331
2023-03-29T10:34:34.640Z,461
2023-03-29T10:35:48.879Z,461
2023-03-29T10:37:03.107Z,478
2023-03-29T10:38:17.325Z,748
2023-03-29T10:39:31.565Z,1603
2023-03-29T10:40:45.860Z,967
2023-03-29T10:42:00.104Z,1136
2023-03-29T10:43:14.308Z,1001
2023-03-29T10:44:28.525Z,804
2023-03-29T10:45:42.763Z,641
2023-03-29T10:46:57.064Z,658
2023-03-29T10:49:25.525Z,534
2023-03-29T10:50:39.757Z,438
2023-03-29T10:51:53.968Z,315
2023-03-29T10:53:08.272Z,298
2023-03-29T10:54:22.507Z,348
2023-03-29T10:55:36.747Z,444
2023-03-29T10:56:51.023Z,405
2023-03-29T10:58:04.362Z,354
2023-03-29T10:59:18.640Z,309
2023-03-29T11:00:31.943Z,303
2023-03-29T11:01:46.161Z,388
2023-03-29T11:03:00.457Z,371
2023-03-29T11:04:14.696Z,438
2023-03-29T11:05:28.923Z,568
2023-03-29T11:06:43.154Z,652
2023-03-29T11:09:11.679Z,545
2023-03-29T11:10:25.922Z,596
2023-03-29T11:11:40.154Z,658
2023-03-29T11:12:54.382Z,770
2023-03-29T11:14:08.592Z,691
2023-03-29T11:15:22.906Z,540
2023-03-29T11:16:37.132Z,450
2023-03-29T11:17:51.361Z,360
2023-03-29T11:19:05.588Z,371
2023-03-29T11:20:19.828Z,382
2023-03-29T11:21:34.128Z,365
2023-03-29T11:22:48.356Z,326
2023-03-29T11:24:02.587Z,315
2023-03-29T11:25:16.808Z,348
2023-03-29T11:27:45.337Z,388
2023-03-29T11:28:59.578Z,399
2023-03-29T11:30:13.809Z,455
2023-03-29T11:31:28.096Z,511
2023-03-29T11:32:41.430Z,590
2023-03-29T11:33:55.699Z,663
2023-03-29T11:35:09.991Z,646
2023-03-29T11:36:23.000Z,776
2023-03-29T11:37:37.577Z,680
2023-03-29T11:38:51.834Z,669
2023-03-29T11:40:06.048Z,618
2023-03-29T11:41:20.281Z,523
2023-03-29T11:42:34.506Z,410
2023-03-29T11:43:48.801Z,416
2023-03-29T11:45:03.055Z,607
2023-03-29T11:46:17.275Z,703
2023-03-29T11:48:45.730Z,810
2023-03-29T11:50:00.020Z,855
2023-03-29T11:51:14.269Z,720
2023-03-29T11:52:28.496Z,483
2023-03-29T11:53:42.707Z,748
2023-03-29T11:54:56.937Z,573
2023-03-29T11:57:25.489Z,427
2023-03-29T11:58:39.699Z,399
2023-03-29T11:59:53.935Z,444
2023-03-29T12:01:08.159Z,438
2023-03-29T12:02:22.467Z,399
2023-03-29T12:03:36.697Z,331
2023-03-29T12:04:50.929Z,360
2023-03-29T12:06:05.146Z,421
2023-03-29T12:07:19.431Z,517
2023-03-29T12:08:33.745Z,776
2023-03-29T12:09:48.011Z,1170
2023-03-29T12:11:01.343Z,1192
2023-03-29T12:12:15.645Z,1192
2023-03-29T12:13:29.929Z,1051
2023-03-29T12:14:44.217Z,832
2023-03-29T12:15:58.509Z,686
2023-03-29T12:17:12.787Z,613
2023-03-29T12:18:26.130Z,534
2023-03-29T12:19:40.421Z,551
2023-03-29T12:20:53.745Z,601
2023-03-29T12:22:07.048Z,613
2023-03-29T12:23:21.288Z,686
2023-03-29T12:24:35.523Z,663
2023-03-29T12:25:49.736Z,613
2023-03-29T12:27:03.961Z,528
2023-03-29T12:28:18.273Z,624
2023-03-29T12:29:32.517Z,630
2023-03-29T12:30:46.730Z,703
2023-03-29T12:32:00.970Z,658
2023-03-29T12:33:15.183Z,528
2023-03-29T12:34:29.489Z,691
2023-03-29T12:35:43.737Z,945
2023-03-29T12:36:57.958Z,967
2023-03-29T12:38:12.189Z,1552
2023-03-29T12:39:26.415Z,1080
2023-03-29T12:40:40.708Z,978
2023-03-29T12:41:54.943Z,1181
2023-03-29T12:43:09.182Z,1265
2023-03-29T12:44:23.394Z,1175
2023-03-29T12:45:37.619Z,871
2023-03-29T12:46:51.930Z,894
2023-03-29T12:48:06.173Z,826
2023-03-29T12:49:20.388Z,871
2023-03-29T12:50:34.616Z,961
2023-03-29T12:51:48.837Z,1080
2023-03-29T12:53:03.213Z,1383
2023-03-29T12:54:17.497Z,1552
2023-03-29T12:55:30.792Z,1473
2023-03-29T12:56:45.008Z,1136
2023-03-29T12:57:59.320Z,922
2023-03-29T12:59:13.554Z,860
2023-03-29T13:00:27.788Z,787
2023-03-29T13:01:42.007Z,545
2023-03-29T13:04:10.539Z,292
2023-03-29T13:05:24.764Z,236
2023-03-29T13:06:38.994Z,264
2023-03-29T13:07:53.231Z,303
2023-03-29T13:09:07.449Z,354
2023-03-29T13:10:21.758Z,399
2023-03-29T13:11:35.984Z,483
2023-03-29T13:12:50.222Z,562
2023-03-29T13:14:04.439Z,613
2023-03-29T13:15:18.679Z,466
2023-03-29T13:16:32.963Z,354
2023-03-29T13:17:47.212Z,315
2023-03-29T13:19:01.445Z,286
2023-03-29T13:20:15.670Z,225
2023-03-29T13:21:29.880Z,219
2023-03-29T13:22:44.190Z,247
2023-03-29T13:23:58.439Z,264
2023-03-29T13:25:12.655Z,236
2023-03-29T13:27:41.226Z,185
2023-03-29T13:28:55.532Z,157
2023-03-29T13:30:09.807Z,163
2023-03-29T13:31:24.097Z,196
2023-03-29T13:32:37.389Z,196
2023-03-29T13:33:51.682Z,202
2023-03-29T13:35:05.930Z,270
2023-03-29T13:36:20.150Z,331
2023-03-29T13:37:34.378Z,303
2023-03-29T13:38:48.601Z,241
2023-03-29T13:40:02.912Z,241
2023-03-29T13:41:17.151Z,270
2023-03-29T13:42:31.369Z,292
2023-03-29T13:43:45.604Z,315
2023-03-29T13:44:59.818Z,365
2023-03-29T13:46:14.116Z,393
2023-03-29T13:47:28.355Z,410
2023-03-29T13:48:42.584Z,416
2023-03-29T13:49:56.809Z,399
2023-03-29T13:51:11.047Z,360
2023-03-29T13:53:39.586Z,365
2023-03-29T13:54:53.808Z,393
2023-03-29T13:56:08.034Z,376
2023-03-29T13:57:22.255Z,354
2023-03-29T13:58:36.552Z,326
2023-03-29T13:59:50.802Z,292
2023-03-29T14:01:05.021Z,241
2023-03-29T14:02:19.247Z,219
2023-03-29T14:03:33.537Z,213
2023-03-29T14:04:47.837Z,241
2023-03-29T14:06:02.114Z,258
2023-03-29T14:07:15.414Z,275
2023-03-29T14:08:29.637Z,303
2023-03-29T14:09:43.953Z,360
2023-03-29T14:10:58.187Z,405
2023-03-29T14:13:26.647Z,478
2023-03-29T14:14:40.868Z,489
2023-03-29T14:15:55.157Z,495
2023-03-29T14:17:09.395Z,495
2023-03-29T14:18:23.627Z,506
2023-03-29T14:19:37.867Z,511
2023-03-29T14:20:52.079Z,511
2023-03-29T14:22:06.385Z,523
2023-03-29T14:23:20.619Z,534
2023-03-29T14:24:34.851Z,596
2023-03-29T14:25:49.072Z,635
2023-03-29T14:27:03.301Z,714
2023-03-29T14:28:17.596Z,736
2023-03-29T14:29:31.853Z,720
2023-03-29T14:30:46.068Z,663
2023-03-29T14:32:00.290Z,613
2023-03-29T14:33:14.524Z,596
2023-03-29T14:34:28.816Z,607
2023-03-29T14:35:43.073Z,596
2023-03-29T14:36:57.294Z,585
2023-03-29T14:38:11.570Z,551
2023-03-29T14:40:39.113Z,444
2023-03-29T14:41:53.343Z,455
2023-03-29T14:43:07.556Z,483
2023-03-29T14:44:21.784Z,478
2023-03-29T14:45:36.080Z,483
2023-03-29T14:46:50.331Z,466
2023-03-29T14:48:04.562Z,433
2023-03-29T14:49:18.788Z,416
2023-03-29T14:50:33.002Z,421
2023-03-29T14:51:47.305Z,438
2023-03-29T14:53:01.540Z,461
2023-03-29T14:54:15.785Z,472
2023-03-29T14:55:29.995Z,472
2023-03-29T14:56:44.218Z,483
2023-03-29T14:57:58.533Z,517
2023-03-29T14:59:12.764Z,528
2023-03-29T15:00:26.995Z,506
2023-03-29T15:01:41.225Z,478
2023-03-29T15:02:55.440Z,466
2023-03-29T15:04:09.750Z,466
2023-03-29T15:05:23.993Z,455
2023-03-29T15:06:38.216Z,455
2023-03-29T15:07:52.444Z,450
2023-03-29T15:09:06.670Z,450
2023-03-29T15:10:21.033Z,455
2023-03-29T15:11:35.314Z,455
2023-03-29T15:12:48.606Z,450
2023-03-29T15:14:02.833Z,438
2023-03-29T15:15:17.139Z,433
2023-03-29T15:16:31.373Z,427
2023-03-29T15:17:45.607Z,416
2023-03-29T15:18:59.830Z,399
2023-03-29T15:20:14.058Z,393
2023-03-29T15:21:28.348Z,365
2023-03-29T15:22:42.601Z,360
2023-03-29T15:23:56.822Z,360
2023-03-29T15:25:11.052Z,348
2023-03-29T15:26:25.278Z,354
2023-03-29T15:27:39.569Z,354
2023-03-29T15:28:53.818Z,337
2023-03-29T15:30:08.030Z,331
2023-03-29T15:31:22.263Z,320
2023-03-29T15:32:36.482Z,303
2023-03-29T15:33:50.796Z,281
2023-03-29T15:35:05.027Z,270
2023-03-29T15:36:19.256Z,270
2023-03-29T15:37:33.482Z,275
2023-03-29T15:38:47.709Z,258
2023-03-29T15:40:02.010Z,258
2023-03-29T15:41:16.259Z,270
2023-03-29T15:42:30.471Z,275
2023-03-29T15:43:44.769Z,270
2023-03-29T15:46:13.352Z,264
2023-03-29T15:47:27.618Z,241
2023-03-29T15:48:40.920Z,236
2023-03-29T15:49:55.154Z,241
2023-03-29T15:51:09.454Z,241
2023-03-29T15:52:23.689Z,241
2023-03-29T15:53:37.908Z,241
2023-03-29T15:54:52.144Z,230
2023-03-29T15:56:06.361Z,202
2023-03-29T15:57:20.657Z,180
2023-03-29T15:58:34.905Z,174
2023-03-29T15:59:49.128Z,174
2023-03-29T16:01:03.370Z,174
2023-03-29T16:02:17.596Z,180
2023-03-29T16:03:31.882Z,168
2023-03-29T16:04:46.120Z,112
2023-03-29T16:06:00.361Z,151
2023-03-29T16:07:14.590Z,163
2023-03-29T16:08:28.806Z,163
2023-03-29T16:09:43.110Z,151
2023-03-29T16:10:57.339Z,146
2023-03-29T16:12:11.571Z,157
2023-03-29T16:13:25.797Z,168
2023-03-29T16:14:40.031Z,168
2023-03-29T16:17:08.567Z,185
2023-03-29T16:18:22.798Z,185
2023-03-29T16:19:37.086Z,185
2023-03-29T16:20:50.418Z,191
2023-03-29T16:22:04.697Z,196
2023-03-29T16:23:17.980Z,191
2023-03-29T16:24:32.211Z,185
2023-03-29T16:25:46.518Z,180
2023-03-29T16:27:00.752Z,174
2023-03-29T16:28:14.985Z,168
2023-03-29T16:29:29.205Z,157
2023-03-29T16:30:43.425Z,146
2023-03-29T16:31:57.724Z,146
2023-03-29T16:33:11.979Z,146
2023-03-29T16:34:26.205Z,146
2023-03-29T16:35:40.414Z,140
2023-03-29T16:36:54.642Z,129
2023-03-29T16:38:08.949Z,129
2023-03-29T16:39:23.187Z,118
2023-03-29T16:40:37.412Z,106
2023-03-29T16:41:51.653Z,101
2023-03-29T16:43:05.879Z,101
2023-03-29T16:44:20.178Z,101
2023-03-29T16:45:34.417Z,101
2023-03-29T16:46:48.628Z,95
2023-03-29T16:48:02.859Z,95
2023-03-29T16:49:17.085Z,90
2023-03-29T16:50:31.379Z,84
2023-03-29T16:51:45.626Z,84
2023-03-29T16:52:59.851Z,78
2023-03-29T16:54:14.146Z,78
2023-03-29T16:55:27.496Z,78
2023-03-29T16:56:41.778Z,73
2023-03-29T16:57:55.066Z,67
2023-03-29T16:59:09.300Z,61
2023-03-29T17:00:23.588Z,61
2023-03-29T17:01:37.826Z,67
2023-03-29T17:02:52.056Z,67
2023-03-29T17:04:06.282Z,67
2023-03-29T17:05:20.518Z,61
2023-03-29T17:06:34.812Z,61
2023-03-29T17:07:49.052Z,56
2023-03-29T17:09:03.277Z,56
2023-03-29T17:10:17.508Z,50
2023-03-29T17:11:31.739Z,45
2023-03-29T17:12:46.043Z,39
2023-03-29T17:15:14.497Z,33
2023-03-29T17:16:28.733Z,33
2023-03-29T17:17:42.953Z,33
2023-03-29T17:18:57.250Z,33
2023-03-29T17:20:11.487Z,33
2023-03-29T17:21:25.718Z,33
2023-03-29T17:22:39.942Z,28
2023-03-29T17:23:54.163Z,28
2023-03-29T17:25:08.476Z,22
2023-03-29T17:26:22.715Z,16
2023-03-29T17:27:36.931Z,16
2023-03-29T17:28:51.224Z,16
2023-03-29T17:30:05.513Z,16
2023-03-29T17:31:19.807Z,16
2023-03-29T17:32:34.099Z,16
2023-03-29T17:33:47.376Z,11
2023-03-29T17:35:01.617Z,11
2023-03-29T17:36:15.920Z,11
2023-03-29T17:37:30.151Z,11
2023-03-29T17:38:44.373Z,11
2023-03-29T17:39:58.609Z,11
2023-03-29T17:41:12.821Z,11
2023-03-29T17:42:27.124Z,5
2023-03-29T17:43:41.378Z,5
2023-03-29T17:44:55.593Z,5
2023-03-29T17:46:09.816Z,5
2023-03-29T17:47:24.046Z,5
2023-03-29T17:49:52.589Z,5
2023-03-29T17:51:06.805Z,5
2023-03-29T17:53:35.274Z,0
2023-03-29T17:54:49.560Z,0
2023-03-29T17:56:03.795Z,0
2023-03-29T17:58:32.252Z,0
2023-03-29T17:59:46.486Z,0
2023-03-29T18:01:00.789Z,0
2023-03-29T18:02:15.031Z,0
2023-03-29T18:03:29.256Z,0
2023-03-29T18:04:43.526Z,0
2023-03-29T18:05:56.884Z,0
2023-03-29T18:07:11.157Z,0
2023-03-29T18:09:38.682Z,0
2023-03-29T18:10:52.987Z,0